Time;durP1;ratioP1;P1;durP2;ratioP2;P2;SDS_P1;SDS_P2;PMS_P1;PMS_P2;Temp;Humidity;BMP_temperature;BMP_pressure;BME280_temperature;BME280_humidity;BME280_pressure;Samples;Min_cycle;Max_cycle;Signal;HPM_P1;HPM_P2
2020/12/13 00:00:07;;;;;;;3.42;2.25;;;;;;;;;;5048633;28;20079;-72
2020/12/13 00:02:33;;;;;;;1.65;1.30;;;;;;;;;;5047631;28;20041;-72
2020/12/13 00:04:59;;;;;;;2.20;1.73;;;;;;;;;;5047201;28;20399;-72
2020/12/13 00:07:25;;;;;;;2.28;1.88;;;;;;;;;;5047340;28;20025;-72
2020/12/13 00:09:51;;;;;;;2.72;1.33;;;;;;;;;;5048244;28;20031;-72
2020/12/13 00:12:17;;;;;;;2.05;1.73;;;;;;;;;;5047463;28;20090;-72
2020/12/13 00:14:43;;;;;;;2.30;2.10;;;;;;;;;;5048097;28;20506;-72
2020/12/13 00:17:09;;;;;;;1.45;1.35;;;;;;;;;;5047519;28;20459;-72
2020/12/13 00:19:35;;;;;;;1.80;1.48;;;;;;;;;;5048167;28;20438;-72
2020/12/13 00:22:02;;;;;;;1.88;1.75;;;;;;;;;;5048073;28;20035;-72
2020/12/13 00:24:28;;;;;;;1.83;1.58;;;;;;;;;;5046953;28;20040;-72
2020/12/13 00:26:54;;;;;;;2.47;1.48;;;;;;;;;;5047741;28;20036;-72
2020/12/13 00:29:20;;;;;;;2.90;1.20;;;;;;;;;;5046915;28;20021;-72
2020/12/13 00:31:46;;;;;;;2.83;1.55;;;;;;;;;;5048120;28;20064;-72
2020/12/13 00:34:12;;;;;;;2.75;1.35;;;;;;;;;;5045794;28;20561;-72
2020/12/13 00:36:38;;;;;;;1.40;1.30;;;;;;;;;;5047489;28;20045;-72
2020/12/13 00:39:05;;;;;;;1.55;1.02;;;;;;;;;;5048274;28;20514;-72
2020/12/13 00:41:31;;;;;;;1.30;1.02;;;;;;;;;;5047298;28;20487;-72
2020/12/13 00:43:57;;;;;;;1.27;1.08;;;;;;;;;;5047517;28;20071;-72
2020/12/13 00:46:24;;;;;;;1.67;1.30;;;;;;;;;;5047043;28;20029;-72
2020/12/13 00:48:50;;;;;;;1.45;1.13;;;;;;;;;;5047815;28;20048;-72
2020/12/13 00:51:22;;;;;;;1.17;1.05;;;;;;;;;;5047199;28;20033;-72
2020/12/13 00:53:48;;;;;;;1.27;1.00;;;;;;;;;;5048621;28;20506;-72
2020/12/13 00:56:14;;;;;;;2.83;2.15;;;;;;;;;;5051134;28;20446;-72
2020/12/13 00:58:40;;;;;;;3.15;1.10;;;;;;;;;;5051569;28;20037;-72
2020/12/13 01:01:06;;;;;;;2.42;1.63;;;;;;;;;;5051727;28;20029;-72
2020/12/13 01:03:32;;;;;;;1.15;1.05;;;;;;;;;;5050179;28;20506;-72
2020/12/13 01:05:58;;;;;;;1.38;1.05;;;;;;;;;;5051434;28;20442;-72
2020/12/13 01:08:24;;;;;;;1.20;1.00;;;;;;;;;;5051156;28;20021;-72
2020/12/13 01:10:50;;;;;;;1.65;1.10;;;;;;;;;;5051361;28;20048;-72
2020/12/13 01:13:16;;;;;;;2.20;1.13;;;;;;;;;;5050516;28;20480;-72
2020/12/13 01:15:42;;;;;;;1.50;0.90;;;;;;;;;;5051448;28;20048;-72
2020/12/13 01:18:08;;;;;;;1.08;0.98;;;;;;;;;;5051210;28;20416;-71
2020/12/13 01:20:35;;;;;;;0.63;0.63;;;;;;;;;;5051076;28;20510;-72
2020/12/13 01:23:01;;;;;;;0.80;0.68;;;;;;;;;;5051199;28;20036;-72
2020/12/13 01:25:27;;;;;;;0.88;0.75;;;;;;;;;;5050762;28;20104;-72
2020/12/13 01:27:53;;;;;;;0.70;0.70;;;;;;;;;;5051149;28;20036;-72
2020/12/13 01:30:19;;;;;;;2.00;1.23;;;;;;;;;;5051343;28;20136;-71
2020/12/13 01:32:45;;;;;;;0.80;0.80;;;;;;;;;;5050532;28;20075;-72
2020/12/13 01:35:12;;;;;;;1.15;0.70;;;;;;;;;;5050120;28;20036;-72
2020/12/13 01:37:38;;;;;;;0.82;0.82;;;;;;;;;;5050706;28;20049;-72
2020/12/13 01:40:08;;;;;;;0.88;0.85;;;;;;;;;;5051648;28;20112;-72
2020/12/13 01:42:40;;;;;;;0.70;0.70;;;;;;;;;;5050886;28;20133;-72
2020/12/13 01:45:07;;;;;;;3.72;1.05;;;;;;;;;;5050818;28;20125;-71
2020/12/13 01:47:33;;;;;;;1.88;1.35;;;;;;;;;;5050291;28;20539;-72
2020/12/13 01:50:00;;;;;;;1.15;1.02;;;;;;;;;;5051162;28;20025;-71
2020/12/13 01:52:43;;;;;;;0.93;0.80;;;;;;;;;;5049982;28;20044;-72
2020/12/13 01:55:11;;;;;;;0.98;0.75;;;;;;;;;;5050448;28;20487;-72
2020/12/13 01:57:38;;;;;;;0.60;0.57;;;;;;;;;;5050044;28;20033;-72
2020/12/13 02:00:06;;;;;;;1.05;0.50;;;;;;;;;;5051075;28;20395;-72
2020/12/13 02:02:34;;;;;;;0.55;0.47;;;;;;;;;;5049848;28;20029;-71
2020/12/13 02:05:00;;;;;;;0.50;0.50;;;;;;;;;;5049194;28;20055;-71
2020/12/13 02:07:28;;;;;;;1.05;0.50;;;;;;;;;;5049490;28;20621;-71
2020/12/13 02:09:54;;;;;;;2.30;1.00;;;;;;;;;;5050762;28;20554;-71
2020/12/13 02:12:20;;;;;;;1.05;0.75;;;;;;;;;;5049692;28;20056;-71
2020/12/13 02:14:46;;;;;;;0.60;0.60;;;;;;;;;;5050466;28;20032;-72
2020/12/13 02:17:12;;;;;;;1.83;0.77;;;;;;;;;;5048893;28;20115;-72
2020/12/13 02:19:38;;;;;;;0.75;0.50;;;;;;;;;;5050543;28;20526;-72
2020/12/13 02:22:09;;;;;;;0.50;0.43;;;;;;;;;;5049361;28;20033;-71
2020/12/13 02:24:35;;;;;;;0.82;0.60;;;;;;;;;;5049946;28;20033;-71
2020/12/13 02:27:05;;;;;;;1.27;0.60;;;;;;;;;;5049894;28;20036;-71
2020/12/13 02:29:31;;;;;;;0.85;0.80;;;;;;;;;;5049443;28;20021;-72
2020/12/13 02:31:57;;;;;;;0.80;0.80;;;;;;;;;;5050181;28;20039;-72
2020/12/13 02:34:23;;;;;;;0.60;0.57;;;;;;;;;;5047514;28;20028;-71
2020/12/13 02:36:49;;;;;;;0.52;0.52;;;;;;;;;;5049501;28;20045;-71
2020/12/13 02:39:15;;;;;;;0.35;0.35;;;;;;;;;;5049202;28;20509;-71
2020/12/13 02:41:41;;;;;;;0.93;0.60;;;;;;;;;;5048468;28;20383;-72
2020/12/13 02:44:08;;;;;;;1.30;0.73;;;;;;;;;;5049342;28;20020;-72
2020/12/13 02:46:34;;;;;;;0.40;0.40;;;;;;;;;;5049094;28;20075;-72
2020/12/13 02:49:00;;;;;;;1.17;0.80;;;;;;;;;;5049712;28;20029;-72
2020/12/13 02:51:26;;;;;;;1.20;1.10;;;;;;;;;;5048976;28;20033;-72
2020/12/13 02:53:52;;;;;;;1.58;1.17;;;;;;;;;;5049224;28;20021;-71
2020/12/13 02:56:18;;;;;;;0.63;0.43;;;;;;;;;;5048802;28;20037;-72
2020/12/13 02:58:44;;;;;;;0.47;0.43;;;;;;;;;;5049143;28;20065;-72
2020/12/13 03:01:10;;;;;;;0.52;0.50;;;;;;;;;;5048837;28;20025;-72
2020/12/13 03:03:37;;;;;;;1.48;1.02;;;;;;;;;;5048002;28;20107;-72
2020/12/13 03:06:03;;;;;;;0.85;0.60;;;;;;;;;;5049182;28;20027;-72
2020/12/13 03:08:29;;;;;;;3.42;0.80;;;;;;;;;;5048503;28;20041;-72
2020/12/13 03:10:55;;;;;;;0.47;0.47;;;;;;;;;;5049332;28;20029;-71
2020/12/13 03:13:21;;;;;;;0.73;0.73;;;;;;;;;;5047993;28;20075;-71
2020/12/13 03:15:47;;;;;;;0.70;0.32;;;;;;;;;;5048940;28;20032;-71
2020/12/13 03:18:13;;;;;;;0.95;0.73;;;;;;;;;;5047314;28;20037;-71
2020/12/13 03:20:39;;;;;;;1.13;0.47;;;;;;;;;;5049167;28;20048;-71
2020/12/13 03:23:05;;;;;;;1.25;0.77;;;;;;;;;;5049119;28;20028;-71
2020/12/13 03:25:31;;;;;;;0.40;0.40;;;;;;;;;;5048784;28;20086;-71
2020/12/13 03:27:57;;;;;;;1.13;0.50;;;;;;;;;;5048785;28;20033;-71
2020/12/13 03:30:23;;;;;;;1.15;0.68;;;;;;;;;;5048884;28;20029;-71
2020/12/13 03:32:49;;;;;;;0.57;0.50;;;;;;;;;;5047758;28;20164;-71
2020/12/13 03:35:15;;;;;;;0.88;0.80;;;;;;;;;;5047834;28;20025;-72
2020/12/13 03:37:41;;;;;;;0.68;0.57;;;;;;;;;;5048176;28;20053;-71
2020/12/13 03:40:11;;;;;;;1.10;0.47;;;;;;;;;;5048808;28;20025;-71
2020/12/13 03:42:37;;;;;;;0.75;0.45;;;;;;;;;;5048626;28;20021;-72
2020/12/13 03:45:07;;;;;;;0.40;0.38;;;;;;;;;;5048629;28;20079;-72
2020/12/13 03:47:33;;;;;;;0.65;0.57;;;;;;;;;;5047957;28;20041;-72
2020/12/13 03:49:59;;;;;;;0.77;0.50;;;;;;;;;;5048995;28;20033;-71
2020/12/13 03:52:25;;;;;;;0.35;0.35;;;;;;;;;;5047715;28;20580;-71
2020/12/13 03:54:51;;;;;;;0.73;0.43;;;;;;;;;;5048934;28;20052;-71
2020/12/13 03:57:17;;;;;;;1.60;0.98;;;;;;;;;;5047070;28;20219;-71
2020/12/13 03:59:43;;;;;;;1.15;0.50;;;;;;;;;;5048263;28;20033;-71
2020/12/13 04:02:09;;;;;;;1.13;0.55;;;;;;;;;;5048194;28;20708;-71
2020/12/13 04:04:35;;;;;;;0.40;0.40;;;;;;;;;;5046983;28;20504;-71
2020/12/13 04:07:01;;;;;;;1.05;0.75;;;;;;;;;;5047939;28;20395;-72
2020/12/13 04:09:27;;;;;;;0.47;0.47;;;;;;;;;;5047624;28;20033;-71
2020/12/13 04:11:53;;;;;;;0.70;0.70;;;;;;;;;;5048850;28;20440;-71
2020/12/13 04:14:19;;;;;;;3.40;0.80;;;;;;;;;;5047028;28;20033;-71
2020/12/13 04:16:46;;;;;;;1.60;0.70;;;;;;;;;;5047749;28;20043;-71
2020/12/13 04:19:12;;;;;;;0.63;0.57;;;;;;;;;;5047632;28;20041;-71
2020/12/13 04:21:38;;;;;;;0.55;0.52;;;;;;;;;;5047960;28;20021;-72
2020/12/13 04:24:04;;;;;;;0.30;0.30;;;;;;;;;;5047687;28;20028;-71
2020/12/13 04:26:32;;;;;;;0.82;0.70;;;;;;;;;;5047178;28;20037;-71
2020/12/13 04:28:58;;;;;;;0.50;0.50;;;;;;;;;;5046795;28;20029;-71
2020/12/13 04:31:24;;;;;;;1.15;0.80;;;;;;;;;;5047288;28;20029;-72
2020/12/13 04:33:50;;;;;;;0.60;0.28;;;;;;;;;;5046423;28;20047;-71
2020/12/13 04:36:16;;;;;;;0.60;0.50;;;;;;;;;;5046670;28;20017;-71
2020/12/13 04:38:43;;;;;;;2.03;1.25;;;;;;;;;;5047196;28;20119;-71
2020/12/13 04:41:10;;;;;;;0.85;0.77;;;;;;;;;;5047661;28;20056;-72
2020/12/13 04:43:36;;;;;;;0.65;0.40;;;;;;;;;;5047753;28;20025;-71
2020/12/13 04:46:02;;;;;;;0.73;0.73;;;;;;;;;;5047358;28;20021;-72
2020/12/13 04:48:28;;;;;;;0.65;0.50;;;;;;;;;;5047552;28;20568;-71
2020/12/13 04:50:56;;;;;;;0.57;0.45;;;;;;;;;;5047414;28;20277;-72
2020/12/13 04:53:26;;;;;;;0.60;0.55;;;;;;;;;;5047171;28;20037;-71
2020/12/13 04:55:56;;;;;;;1.40;0.68;;;;;;;;;;5047568;28;20029;-72
2020/12/13 04:58:23;;;;;;;0.30;0.30;;;;;;;;;;5046748;28;20407;-72
2020/12/13 05:01:02;;;;;;;0.98;0.60;;;;;;;;;;5047089;28;20039;-72
2020/12/13 05:03:28;;;;;;;0.35;0.30;;;;;;;;;;5045740;28;20062;-71
2020/12/13 05:05:58;;;;;;;0.95;0.43;;;;;;;;;;5047738;28;20098;-72
2020/12/13 05:08:25;;;;;;;0.40;0.40;;;;;;;;;;5046752;28;20040;-72
2020/12/13 05:10:51;;;;;;;0.65;0.52;;;;;;;;;;5047922;28;20033;-71
2020/12/13 05:13:17;;;;;;;1.20;0.30;;;;;;;;;;5046926;28;20504;-71
2020/12/13 05:15:43;;;;;;;0.30;0.30;;;;;;;;;;5047393;28;20033;-71
2020/12/13 05:18:09;;;;;;;1.33;0.77;;;;;;;;;;5046918;28;20033;-71
2020/12/13 05:20:36;;;;;;;0.40;0.40;;;;;;;;;;5047277;28;20104;-71
2020/12/13 05:23:02;;;;;;;0.47;0.30;;;;;;;;;;5047090;28;20111;-71
2020/12/13 05:25:29;;;;;;;1.35;0.43;;;;;;;;;;5046924;28;20029;-71
2020/12/13 05:27:57;;;;;;;0.40;0.40;;;;;;;;;;5047239;28;20025;-72
2020/12/13 05:30:32;;;;;;;0.35;0.30;;;;;;;;;;5046846;28;20493;-72
2020/12/13 05:33:06;;;;;;;0.35;0.35;;;;;;;;;;5046554;28;20029;-72
2020/12/13 05:35:32;;;;;;;0.73;0.40;;;;;;;;;;5047374;28;20545;-72
2020/12/13 05:37:58;;;;;;;0.77;0.40;;;;;;;;;;5046604;28;20053;-72
2020/12/13 05:40:25;;;;;;;2.28;1.20;;;;;;;;;;5047107;28;20056;-72
2020/12/13 05:42:58;;;;;;;0.22;0.22;;;;;;;;;;5050981;28;20033;-72
2020/12/13 05:52:48;;;;;;;0.60;0.57;;;;;;;;;;5050674;28;20090;-72
2020/12/13 05:55:15;;;;;;;0.40;0.30;;;;;;;;;;5050577;28;20033;-72
2020/12/13 05:57:41;;;;;;;0.80;0.60;;;;;;;;;;5050625;28;20510;-72
2020/12/13 06:00:08;;;;;;;0.60;0.40;;;;;;;;;;5050824;28;20059;-72
2020/12/13 06:02:37;;;;;;;1.50;0.77;;;;;;;;;;5050044;28;20083;-72
2020/12/13 06:05:05;;;;;;;0.52;0.45;;;;;;;;;;5049914;28;20029;-72
2020/12/13 06:07:40;;;;;;;0.30;0.30;;;;;;;;;;5049575;28;20032;-72
2020/12/13 06:10:06;;;;;;;0.57;0.20;;;;;;;;;;5050559;28;20025;-72
2020/12/13 06:12:32;;;;;;;0.60;0.30;;;;;;;;;;5050142;28;20021;-72
2020/12/13 06:15:00;;;;;;;1.00;0.30;;;;;;;;;;5050654;28;20067;-72
2020/12/13 06:17:26;;;;;;;0.40;0.40;;;;;;;;;;5049137;28;20668;-72
2020/12/13 06:19:53;;;;;;;0.80;0.30;;;;;;;;;;5050709;28;20036;-72
2020/12/13 06:22:21;;;;;;;0.35;0.35;;;;;;;;;;5049044;28;20079;-72
2020/12/13 06:24:47;;;;;;;0.30;0.30;;;;;;;;;;5049921;28;20060;-72
2020/12/13 06:27:13;;;;;;;0.45;0.20;;;;;;;;;;5049486;28;20120;-72
2020/12/13 06:29:41;;;;;;;0.65;0.30;;;;;;;;;;5050100;28;20025;-72
2020/12/13 06:32:09;;;;;;;0.30;0.30;;;;;;;;;;5049630;28;20506;-72
2020/12/13 06:34:35;;;;;;;2.13;0.70;;;;;;;;;;5048830;28;20104;-72
2020/12/13 06:37:04;;;;;;;0.55;0.52;;;;;;;;;;5049289;28;20063;-72
2020/12/13 06:39:31;;;;;;;0.22;0.20;;;;;;;;;;5049694;28;20547;-72
2020/12/13 06:42:02;;;;;;;0.25;0.20;;;;;;;;;;5049873;28;20032;-72
2020/12/13 06:44:28;;;;;;;0.30;0.30;;;;;;;;;;5049017;28;20071;-72
2020/12/13 06:46:55;;;;;;;0.73;0.22;;;;;;;;;;5049680;28;20032;-72
2020/12/13 06:49:21;;;;;;;1.00;0.75;;;;;;;;;;5049560;28;20503;-72
2020/12/13 06:51:47;;;;;;;0.90;0.35;;;;;;;;;;5049586;28;20036;-72
2020/12/13 06:54:17;;;;;;;0.50;0.20;;;;;;;;;;5048830;28;20407;-72
2020/12/13 06:56:43;;;;;;;0.35;0.30;;;;;;;;;;5049426;28;20032;-72
2020/12/13 06:59:11;;;;;;;0.63;0.35;;;;;;;;;;5049573;28;20467;-72
2020/12/13 07:01:42;;;;;;;0.17;0.17;;;;;;;;;;5049447;28;20025;-72
2020/12/13 07:04:30;;;;;;;0.20;0.20;;;;;;;;;;5047796;28;20076;-72
2020/12/13 07:07:03;;;;;;;0.32;0.32;;;;;;;;;;5049225;28;20608;-72
2020/12/13 07:09:30;;;;;;;0.30;0.30;;;;;;;;;;5049134;28;20036;-72
2020/12/13 07:11:57;;;;;;;0.43;0.25;;;;;;;;;;5049390;28;20108;-72
2020/12/13 07:14:25;;;;;;;0.40;0.32;;;;;;;;;;5048762;28;20384;-72
2020/12/13 07:17:08;;;;;;;0.52;0.52;;;;;;;;;;5048331;28;20082;-72
2020/12/13 07:19:36;;;;;;;0.63;0.63;;;;;;;;;;5049695;28;20041;-72
2020/12/13 07:22:06;;;;;;;0.45;0.20;;;;;;;;;;5049141;28;20033;-72
2020/12/13 07:24:33;;;;;;;0.30;0.20;;;;;;;;;;5048604;28;20120;-72
2020/12/13 07:27:00;;;;;;;0.20;0.20;;;;;;;;;;5048883;28;20449;-72
2020/12/13 07:29:28;;;;;;;2.30;0.20;;;;;;;;;;5048542;28;20029;-72
2020/12/13 07:31:54;;;;;;;0.30;0.30;;;;;;;;;;5049103;28;20029;-72
2020/12/13 07:34:20;;;;;;;2.13;0.38;;;;;;;;;;5046881;28;20107;-72
2020/12/13 07:36:46;;;;;;;0.17;0.17;;;;;;;;;;5048374;28;20117;-72
2020/12/13 07:39:13;;;;;;;0.28;0.28;;;;;;;;;;5048178;28;20041;-72
2020/12/13 07:41:40;;;;;;;0.50;0.30;;;;;;;;;;5048589;28;20025;-72
2020/12/13 07:44:07;;;;;;;0.25;0.25;;;;;;;;;;5048088;28;20507;-71
2020/12/13 07:46:34;;;;;;;0.47;0.20;;;;;;;;;;5048221;28;20399;-72
2020/12/13 07:49:23;;;;;;;0.63;0.30;;;;;;;;;;5048470;28;20039;-72
2020/12/13 07:51:52;;;;;;;0.85;0.20;;;;;;;;;;5047816;28;20124;-72
2020/12/13 07:54:20;;;;;;;0.20;0.20;;;;;;;;;;5047667;28;20071;-72
2020/12/13 07:56:50;;;;;;;0.10;0.10;;;;;;;;;;5048408;28;20548;-72
2020/12/13 07:59:26;;;;;;;2.28;1.00;;;;;;;;;;5047737;28;20033;-72
2020/12/13 08:01:53;;;;;;;0.35;0.25;;;;;;;;;;5048406;28;20025;-72
2020/12/13 08:04:32;;;;;;;0.30;0.20;;;;;;;;;;5045970;28;20100;-72
2020/12/13 08:06:59;;;;;;;0.22;0.20;;;;;;;;;;5047969;28;20033;-72
2020/12/13 08:09:26;;;;;;;0.20;0.20;;;;;;;;;;5045810;28;20510;-72
2020/12/13 08:11:52;;;;;;;0.38;0.30;;;;;;;;;;5047837;28;20086;-72
2020/12/13 08:14:21;;;;;;;0.13;0.13;;;;;;;;;;5047506;28;20032;-72
2020/12/13 08:16:49;;;;;;;0.20;0.20;;;;;;;;;;5048049;28;20017;-71
2020/12/13 08:19:16;;;;;;;0.20;0.20;;;;;;;;;;5048316;28;20059;-71
2020/12/13 08:21:49;;;;;;;0.38;0.30;;;;;;;;;;5047738;28;20032;-71
2020/12/13 08:24:15;;;;;;;0.10;0.10;;;;;;;;;;5046962;28;20028;-72
2020/12/13 08:26:43;;;;;;;0.20;0.20;;;;;;;;;;5048292;28;20028;-72
2020/12/13 08:29:09;;;;;;;0.70;0.30;;;;;;;;;;5047520;28;20033;-71
2020/12/13 08:31:36;;;;;;;0.20;0.20;;;;;;;;;;5048285;28;20029;-72
2020/12/13 08:34:06;;;;;;;0.68;0.30;;;;;;;;;;5046035;28;20041;-72
2020/12/13 08:36:33;;;;;;;0.32;0.32;;;;;;;;;;5047448;28;20110;-72
2020/12/13 08:39:00;;;;;;;1.05;0.43;;;;;;;;;;5048032;28;20040;-72
2020/12/13 08:41:26;;;;;;;0.52;0.52;;;;;;;;;;5047234;28;20096;-72
2020/12/13 08:43:52;;;;;;;0.55;0.32;;;;;;;;;;5047040;28;20112;-72
2020/12/13 08:46:38;;;;;;;0.40;0.25;;;;;;;;;;5047256;28;20498;-72
2020/12/13 08:49:07;;;;;;;0.32;0.30;;;;;;;;;;5048015;28;20491;-72
2020/12/13 08:51:33;;;;;;;0.52;0.47;;;;;;;;;;5048049;28;20526;-72
2020/12/13 08:53:59;;;;;;;1.00;0.73;;;;;;;;;;5047177;28;20032;-72
2020/12/13 08:56:33;;;;;;;0.40;0.30;;;;;;;;;;5047111;28;20029;-72
2020/12/13 08:58:59;;;;;;;0.30;0.30;;;;;;;;;;5047845;28;20037;-72
2020/12/13 09:01:30;;;;;;;0.20;0.20;;;;;;;;;;5044398;28;20021;-72
2020/12/13 09:03:56;;;;;;;0.38;0.38;;;;;;;;;;5045313;28;20029;-72
2020/12/13 09:06:33;;;;;;;1.08;0.30;;;;;;;;;;5046349;28;20063;-72
2020/12/13 09:09:12;;;;;;;0.52;0.30;;;;;;;;;;5046698;28;20122;-72
2020/12/13 09:11:38;;;;;;;0.60;0.40;;;;;;;;;;5046783;28;20116;-72
2020/12/13 09:14:05;;;;;;;0.22;0.22;;;;;;;;;;5046402;28;20159;-72
2020/12/13 09:16:33;;;;;;;0.47;0.40;;;;;;;;;;5049802;28;20507;-72
2020/12/13 09:19:06;;;;;;;0.30;0.30;;;;;;;;;;5050641;28;20086;-72
2020/12/13 09:21:41;;;;;;;3.00;1.40;;;;;;;;;;5050490;28;20515;-72
2020/12/13 09:24:07;;;;;;;0.22;0.22;;;;;;;;;;5050155;28;20064;-72
2020/12/13 09:26:33;;;;;;;0.40;0.40;;;;;;;;;;5050525;28;20387;-72
2020/12/13 09:28:59;;;;;;;0.77;0.40;;;;;;;;;;5050921;28;20036;-72
2020/12/13 09:31:25;;;;;;;0.43;0.40;;;;;;;;;;5050633;28;20818;-72
2020/12/13 09:33:51;;;;;;;0.40;0.40;;;;;;;;;;5049951;28;20025;-72
2020/12/13 09:36:17;;;;;;;0.30;0.30;;;;;;;;;;5050457;28;20025;-72
2020/12/13 09:38:43;;;;;;;0.30;0.30;;;;;;;;;;5050736;28;20049;-72
2020/12/13 09:41:10;;;;;;;0.35;0.30;;;;;;;;;;5050758;28;20100;-72
2020/12/13 09:43:36;;;;;;;1.83;0.50;;;;;;;;;;5050847;28;20072;-72
2020/12/13 09:46:02;;;;;;;0.88;0.60;;;;;;;;;;5050828;28;20025;-72
2020/12/13 09:48:28;;;;;;;0.20;0.20;;;;;;;;;;5050164;28;20033;-72
2020/12/13 09:50:54;;;;;;;0.88;0.82;;;;;;;;;;5050978;28;20033;-72
2020/12/13 09:53:20;;;;;;;0.45;0.45;;;;;;;;;;5049765;28;20074;-72
2020/12/13 09:55:46;;;;;;;1.75;0.55;;;;;;;;;;5050819;28;20072;-72
2020/12/13 09:58:12;;;;;;;0.25;0.25;;;;;;;;;;5049611;28;20029;-72
2020/12/13 10:00:38;;;;;;;0.73;0.70;;;;;;;;;;5050716;28;20437;-72
2020/12/13 10:03:04;;;;;;;0.93;0.57;;;;;;;;;;5049227;28;20368;-72
2020/12/13 10:05:39;;;;;;;0.30;0.30;;;;;;;;;;5049696;28;20143;-72
2020/12/13 10:10:55;;;;;;;0.85;0.85;;;;;;;;;;5049401;28;20086;-72
2020/12/13 10:13:21;;;;;;;0.93;0.68;;;;;;;;;;5049595;28;20029;-72
2020/12/13 10:15:47;;;;;;;2.03;0.80;;;;;;;;;;5050532;28;20373;-72
2020/12/13 10:18:13;;;;;;;0.82;0.82;;;;;;;;;;5049650;28;20068;-72
2020/12/13 10:20:42;;;;;;;0.63;0.63;;;;;;;;;;5050199;28;20082;-72
2020/12/13 10:23:08;;;;;;;0.60;0.60;;;;;;;;;;5049652;28;20530;-72
2020/12/13 10:25:34;;;;;;;0.50;0.50;;;;;;;;;;5049849;28;20389;-72
2020/12/13 10:28:00;;;;;;;1.48;0.73;;;;;;;;;;5050010;28;20036;-72
2020/12/13 10:30:26;;;;;;;0.82;0.82;;;;;;;;;;5049437;28;20029;-72
2020/12/13 10:32:54;;;;;;;0.68;0.68;;;;;;;;;;5048949;28;20116;-73
2020/12/13 10:35:21;;;;;;;1.23;1.13;;;;;;;;;;5048840;28;20028;-73
2020/12/13 10:37:47;;;;;;;1.75;0.82;;;;;;;;;;5049399;28;20043;-73
2020/12/13 10:40:13;;;;;;;1.17;0.85;;;;;;;;;;5049771;28;20052;-72
2020/12/13 10:42:39;;;;;;;0.88;0.63;;;;;;;;;;5049700;28;20039;-72
2020/12/13 10:45:05;;;;;;;0.77;0.77;;;;;;;;;;5049831;28;20017;-73
2020/12/13 10:47:31;;;;;;;0.68;0.55;;;;;;;;;;5049557;28;20770;-72
2020/12/13 10:49:57;;;;;;;1.38;1.27;;;;;;;;;;5050160;28;20051;-73
2020/12/13 10:52:23;;;;;;;0.50;0.50;;;;;;;;;;5049284;28;20029;-72
2020/12/13 10:54:49;;;;;;;0.63;0.40;;;;;;;;;;5049785;28;20028;-72
2020/12/13 10:57:15;;;;;;;0.60;0.60;;;;;;;;;;5048787;28;20079;-73
2020/12/13 10:59:41;;;;;;;1.33;1.27;;;;;;;;;;5049852;28;20036;-72
2020/12/13 11:02:07;;;;;;;3.00;0.80;;;;;;;;;;5049436;28;20044;-72
2020/12/13 11:04:33;;;;;;;1.38;0.93;;;;;;;;;;5047975;28;20518;-72
2020/12/13 11:06:59;;;;;;;0.60;0.60;;;;;;;;;;5049541;28;20399;-72
2020/12/13 11:09:25;;;;;;;1.20;0.90;;;;;;;;;;5049191;28;20438;-72
2020/12/13 11:11:51;;;;;;;0.50;0.50;;;;;;;;;;5049224;28;20115;-73
2020/12/13 11:14:17;;;;;;;1.83;1.50;;;;;;;;;;5048691;28;20450;-72
2020/12/13 11:16:47;;;;;;;0.60;0.60;;;;;;;;;;5049005;28;20028;-72
2020/12/13 11:19:13;;;;;;;1.08;0.60;;;;;;;;;;5048915;28;20120;-72
2020/12/13 11:21:46;;;;;;;0.50;0.50;;;;;;;;;;5049177;28;20033;-72
2020/12/13 11:24:12;;;;;;;1.52;0.80;;;;;;;;;;5048372;28;20096;-72
2020/12/13 11:26:38;;;;;;;1.02;0.88;;;;;;;;;;5049309;28;20025;-72
2020/12/13 11:29:04;;;;;;;0.70;0.70;;;;;;;;;;5049332;28;20399;-72
2020/12/13 11:31:30;;;;;;;0.63;0.60;;;;;;;;;;5048588;28;20037;-72
2020/12/13 11:33:57;;;;;;;1.25;0.60;;;;;;;;;;5047649;28;20032;-73
2020/12/13 11:36:23;;;;;;;0.47;0.47;;;;;;;;;;5048050;28;20021;-72
2020/12/13 11:38:49;;;;;;;0.75;0.60;;;;;;;;;;5048317;28;20029;-73
2020/12/13 11:41:15;;;;;;;0.55;0.55;;;;;;;;;;5048448;28;20060;-72
2020/12/13 11:43:41;;;;;;;1.45;0.75;;;;;;;;;;5048452;28;20067;-73
2020/12/13 11:46:08;;;;;;;0.93;0.90;;;;;;;;;;5048266;28;20048;-72
2020/12/13 11:48:34;;;;;;;0.80;0.70;;;;;;;;;;5028770;28;20099;-73
2020/12/13 11:51:00;;;;;;;0.80;0.75;;;;;;;;;;5029181;28;20029;-73
2020/12/13 11:53:27;;;;;;;0.68;0.68;;;;;;;;;;5027630;28;20025;-73
2020/12/13 11:55:55;;;;;;;0.90;0.77;;;;;;;;;;5028921;28;20056;-73
2020/12/13 11:58:21;;;;;;;0.65;0.65;;;;;;;;;;5027893;28;20076;-73
2020/12/13 12:00:47;;;;;;;1.25;0.70;;;;;;;;;;5028784;28;20025;-73
2020/12/13 12:03:13;;;;;;;0.50;0.50;;;;;;;;;;5026744;28;20510;-73
2020/12/13 12:05:40;;;;;;;0.75;0.60;;;;;;;;;;5028145;28;20053;-73
2020/12/13 12:08:06;;;;;;;0.63;0.60;;;;;;;;;;5028573;28;20017;-73
2020/12/13 12:10:32;;;;;;;0.90;0.90;;;;;;;;;;5028029;28;20028;-73
2020/12/13 12:12:58;;;;;;;1.33;0.82;;;;;;;;;;5028658;28;20384;-72
2020/12/13 12:15:24;;;;;;;0.82;0.75;;;;;;;;;;5027741;28;20492;-72
2020/12/13 12:17:50;;;;;;;0.63;0.63;;;;;;;;;;5028292;28;20033;-73
2020/12/13 12:20:19;;;;;;;0.73;0.73;;;;;;;;;;5026549;28;20438;-73
2020/12/13 12:22:45;;;;;;;1.13;1.02;;;;;;;;;;5027745;28;20021;-73
2020/12/13 12:25:12;;;;;;;1.15;0.73;;;;;;;;;;5027690;28;20030;-73
2020/12/13 12:27:38;;;;;;;0.68;0.50;;;;;;;;;;5028275;28;20029;-73
2020/12/13 12:30:08;;;;;;;0.65;0.65;;;;;;;;;;5028201;28;20108;-73
2020/12/13 12:32:34;;;;;;;1.13;1.02;;;;;;;;;;5027437;28;20041;-73
2020/12/13 12:35:00;;;;;;;1.10;0.70;;;;;;;;;;5027323;28;20033;-73
2020/12/13 12:37:26;;;;;;;1.40;1.30;;;;;;;;;;5043328;28;20063;-73
2020/12/13 12:39:52;;;;;;;2.25;1.35;;;;;;;;;;5047932;28;20115;-72
2020/12/13 12:42:18;;;;;;;0.95;0.88;;;;;;;;;;5046976;28;20035;-73
2020/12/13 12:44:45;;;;;;;2.13;0.82;;;;;;;;;;5048012;28;20052;-73
2020/12/13 12:47:11;;;;;;;1.40;1.23;;;;;;;;;;5047377;28;20028;-73
2020/12/13 12:49:37;;;;;;;1.25;0.90;;;;;;;;;;5047765;28;20087;-73
2020/12/13 12:52:03;;;;;;;0.88;0.88;;;;;;;;;;5047876;28;20415;-73
2020/12/13 12:54:29;;;;;;;0.77;0.70;;;;;;;;;;5047336;28;20036;-73
2020/12/13 12:56:55;;;;;;;0.90;0.75;;;;;;;;;;5047660;28;20092;-73
2020/12/13 12:59:29;;;;;;;1.08;0.82;;;;;;;;;;5046807;28;20029;-73
2020/12/13 13:01:57;;;;;;;0.50;0.50;;;;;;;;;;5047696;28;20468;-73
2020/12/13 13:04:29;;;;;;;1.02;0.82;;;;;;;;;;5046029;28;20092;-73
2020/12/13 13:07:03;;;;;;;1.00;0.70;;;;;;;;;;5047651;28;20403;-73
2020/12/13 13:09:34;;;;;;;1.67;0.82;;;;;;;;;;5047398;28;20067;-73
2020/12/13 13:12:01;;;;;;;2.72;1.73;;;;;;;;;;5047125;28;20453;-73
2020/12/13 13:14:27;;;;;;;0.88;0.68;;;;;;;;;;5047223;28;20037;-73
2020/12/13 13:17:02;;;;;;;1.23;1.13;;;;;;;;;;5047466;28;20044;-73
2020/12/13 13:19:28;;;;;;;1.20;0.98;;;;;;;;;;5046844;28;20511;-73
2020/12/13 13:22:00;;;;;;;0.90;0.70;;;;;;;;;;5047173;28;20021;-73
2020/12/13 13:24:26;;;;;;;0.80;0.80;;;;;;;;;;5046567;28;20025;-73
2020/12/13 13:26:53;;;;;;;1.17;1.10;;;;;;;;;;5047586;28;20237;-73
2020/12/13 13:29:19;;;;;;;0.70;0.70;;;;;;;;;;5046892;28;20507;-73
2020/12/13 13:31:45;;;;;;;2.72;1.48;;;;;;;;;;5047185;28;20025;-73
2020/12/13 13:34:11;;;;;;;1.23;0.93;;;;;;;;;;5045814;28;20050;-72
2020/12/13 13:36:38;;;;;;;0.85;0.85;;;;;;;;;;5046936;28;20403;-73
2020/12/13 13:39:05;;;;;;;0.95;0.70;;;;;;;;;;5047632;28;20033;-72
2020/12/13 13:41:34;;;;;;;0.75;0.55;;;;;;;;;;5046802;28;20381;-73
2020/12/13 13:44:04;;;;;;;1.45;1.35;;;;;;;;;;5047433;28;20499;-73
2020/12/13 13:51:47;;;;;;;0.88;0.88;;;;;;;;;;5047144;28;20076;-73
2020/12/13 13:54:16;;;;;;;1.05;0.85;;;;;;;;;;5046569;28;20372;-73
2020/12/13 13:57:18;;;;;;;1.08;0.98;;;;;;;;;;5047186;28;20052;-73
2020/12/13 13:59:35;;;;;;;0.85;0.73;;;;;;;;;;5046186;28;20041;-73
2020/12/13 14:02:01;;;;;;;2.90;1.10;;;;;;;;;;5048265;28;20025;-72
2020/12/13 14:04:29;;;;;;;1.05;0.88;;;;;;;;;;5048775;28;20057;-72
2020/12/13 14:09:27;;;;;;;1.73;1.10;;;;;;;;;;5049882;28;20126;-73
2020/12/13 14:11:54;;;;;;;2.90;1.08;;;;;;;;;;5050575;28;20047;-73
2020/12/13 14:14:20;;;;;;;1.20;0.90;;;;;;;;;;5049920;28;20059;-73
2020/12/13 14:16:47;;;;;;;1.42;1.15;;;;;;;;;;5049975;28;20025;-73
2020/12/13 14:19:13;;;;;;;0.80;0.80;;;;;;;;;;5050089;28;20041;-73
2020/12/13 14:21:39;;;;;;;0.80;0.80;;;;;;;;;;5050107;28;20025;-73
2020/12/13 14:24:05;;;;;;;2.10;0.70;;;;;;;;;;5050090;28;20025;-73
2020/12/13 14:26:32;;;;;;;1.27;1.08;;;;;;;;;;5049545;28;20428;-73
2020/12/13 14:28:58;;;;;;;1.10;1.00;;;;;;;;;;5050340;28;20052;-73
2020/12/13 14:31:24;;;;;;;1.48;1.38;;;;;;;;;;5050123;28;20325;-72
2020/12/13 14:33:50;;;;;;;0.90;0.80;;;;;;;;;;5048617;28;20025;-73
2020/12/13 14:36:17;;;;;;;2.67;1.17;;;;;;;;;;5049457;28;20020;-73
2020/12/13 14:38:43;;;;;;;1.75;1.52;;;;;;;;;;5049987;28;20053;-73
2020/12/13 14:41:10;;;;;;;0.73;0.73;;;;;;;;;;5050169;28;20032;-73
2020/12/13 14:43:37;;;;;;;1.10;1.00;;;;;;;;;;5049536;28;20411;-73
2020/12/13 14:46:07;;;;;;;0.85;0.80;;;;;;;;;;5050115;28;20143;-73
2020/12/13 14:48:33;;;;;;;1.00;0.90;;;;;;;;;;5049529;28;20021;-73
2020/12/13 14:51:00;;;;;;;1.95;1.00;;;;;;;;;;5050414;28;20025;-73
2020/12/13 14:53:26;;;;;;;1.35;0.95;;;;;;;;;;5048960;28;20120;-73
2020/12/13 14:55:52;;;;;;;0.90;0.90;;;;;;;;;;5049842;28;20105;-73
2020/12/13 14:58:18;;;;;;;0.90;0.90;;;;;;;;;;5049043;28;20044;-73
2020/12/13 15:00:44;;;;;;;1.08;1.00;;;;;;;;;;5049817;28;20025;-73